sensor_id;sensor_type;location;lat;lon;timestamp;P1;durP1;ratioP1;P2;durP2;ratioP2
29044;SDS011;16133;49.486;12.176;2023-04-08T00:01:51;15.85;;;8.05;;
29044;SDS011;16133;49.486;12.176;2023-04-08T00:04:17;14.18;;;7.90;;
29044;SDS011;16133;49.486;12.176;2023-04-08T00:06:42;15.90;;;8.60;;
29044;SDS011;16133;49.486;12.176;2023-04-08T00:09:08;18.48;;;8.88;;
29044;SDS011;16133;49.486;12.176;2023-04-08T00:11:33;20.73;;;9.88;;
29044;SDS011;16133;49.486;12.176;2023-04-08T00:13:59;17.10;;;8.85;;
29044;SDS011;16133;49.486;12.176;2023-04-08T00:16:24;20.48;;;9.13;;
29044;SDS011;16133;49.486;12.176;2023-04-08T00:18:50;16.30;;;8.68;;
29044;SDS011;16133;49.486;12.176;2023-04-08T00:21:16;19.27;;;9.63;;
29044;SDS011;16133;49.486;12.176;2023-04-08T00:23:44;19.05;;;8.73;;
29044;SDS011;16133;49.486;12.176;2023-04-08T00:26:10;15.80;;;8.48;;
29044;SDS011;16133;49.486;12.176;2023-04-08T00:28:35;17.23;;;9.13;;
29044;SDS011;16133;49.486;12.176;2023-04-08T00:31:01;17.55;;;8.68;;
29044;SDS011;16133;49.486;12.176;2023-04-08T00:33:26;16.77;;;9.27;;
29044;SDS011;16133;49.486;12.176;2023-04-08T00:35:52;20.35;;;8.48;;
29044;SDS011;16133;49.486;12.176;2023-04-08T00:38:17;17.35;;;8.30;;
29044;SDS011;16133;49.486;12.176;2023-04-08T00:40:42;14.63;;;8.15;;
29044;SDS011;16133;49.486;12.176;2023-04-08T00:43:08;15.70;;;7.57;;
29044;SDS011;16133;49.486;12.176;2023-04-08T00:45:33;14.75;;;7.93;;
29044;SDS011;16133;49.486;12.176;2023-04-08T00:47:59;16.80;;;8.73;;
29044;SDS011;16133;49.486;12.176;2023-04-08T00:50:25;14.35;;;7.97;;
29044;SDS011;16133;49.486;12.176;2023-04-08T00:52:50;18.35;;;8.32;;
29044;SDS011;16133;49.486;12.176;2023-04-08T00:55:16;15.38;;;8.13;;
29044;SDS011;16133;49.486;12.176;2023-04-08T00:57:41;13.52;;;8.40;;
29044;SDS011;16133;49.486;12.176;2023-04-08T01:00:07;15.20;;;7.68;;
29044;SDS011;16133;49.486;12.176;2023-04-08T01:05:35;14.07;;;7.80;;
29044;SDS011;16133;49.486;12.176;2023-04-08T01:08:09;16.30;;;7.72;;
29044;SDS011;16133;49.486;12.176;2023-04-08T01:10:36;16.30;;;8.43;;
29044;SDS011;16133;49.486;12.176;2023-04-08T01:13:11;17.35;;;8.38;;
29044;SDS011;16133;49.486;12.176;2023-04-08T01:15:41;16.48;;;9.45;;
29044;SDS011;16133;49.486;12.176;2023-04-08T01:18:10;15.27;;;7.93;;
29044;SDS011;16133;49.486;12.176;2023-04-08T01:20:38;13.40;;;7.38;;
29044;SDS011;16133;49.486;12.176;2023-04-08T01:25:46;18.67;;;9.10;;
29044;SDS011;16133;49.486;12.176;2023-04-08T01:28:14;17.65;;;8.68;;
29044;SDS011;16133;49.486;12.176;2023-04-08T01:30:42;17.85;;;9.57;;
29044;SDS011;16133;49.486;12.176;2023-04-08T01:33:11;20.02;;;9.80;;
29044;SDS011;16133;49.486;12.176;2023-04-08T01:35:39;25.10;;;11.85;;
29044;SDS011;16133;49.486;12.176;2023-04-08T01:38:05;24.42;;;11.32;;
29044;SDS011;16133;49.486;12.176;2023-04-08T01:40:33;24.65;;;11.80;;
29044;SDS011;16133;49.486;12.176;2023-04-08T01:43:00;22.27;;;11.20;;
29044;SDS011;16133;49.486;12.176;2023-04-08T01:45:28;19.95;;;9.52;;
29044;SDS011;16133;49.486;12.176;2023-04-08T01:47:54;16.13;;;9.30;;
29044;SDS011;16133;49.486;12.176;2023-04-08T01:50:21;16.77;;;9.43;;
29044;SDS011;16133;49.486;12.176;2023-04-08T01:52:49;17.35;;;9.15;;
29044;SDS011;16133;49.486;12.176;2023-04-08T01:55:17;18.95;;;9.32;;
29044;SDS011;16133;49.486;12.176;2023-04-08T01:57:46;16.98;;;9.25;;
29044;SDS011;16133;49.486;12.176;2023-04-08T02:00:14;17.42;;;9.73;;
29044;SDS011;16133;49.486;12.176;2023-04-08T02:02:42;20.60;;;9.73;;
29044;SDS011;16133;49.486;12.176;2023-04-08T02:05:10;15.55;;;8.43;;
29044;SDS011;16133;49.486;12.176;2023-04-08T02:07:36;17.73;;;8.95;;
29044;SDS011;16133;49.486;12.176;2023-04-08T02:10:01;16.38;;;8.85;;
29044;SDS011;16133;49.486;12.176;2023-04-08T02:12:28;15.32;;;8.20;;
29044;SDS011;16133;49.486;12.176;2023-04-08T02:14:53;14.93;;;8.25;;
29044;SDS011;16133;49.486;12.176;2023-04-08T02:17:31;16.25;;;8.73;;
29044;SDS011;16133;49.486;12.176;2023-04-08T02:25:29;18.90;;;9.05;;
29044;SDS011;16133;49.486;12.176;2023-04-08T02:27:58;16.42;;;8.32;;
29044;SDS011;16133;49.486;12.176;2023-04-08T02:30:25;18.90;;;9.15;;
29044;SDS011;16133;49.486;12.176;2023-04-08T02:32:52;20.50;;;9.00;;
29044;SDS011;16133;49.486;12.176;2023-04-08T02:35:18;17.50;;;8.38;;
29044;SDS011;16133;49.486;12.176;2023-04-08T02:37:45;18.13;;;9.10;;
29044;SDS011;16133;49.486;12.176;2023-04-08T02:40:25;15.20;;;8.65;;
29044;SDS011;16133;49.486;12.176;2023-04-08T02:42:52;19.80;;;9.07;;
29044;SDS011;16133;49.486;12.176;2023-04-08T02:45:18;19.13;;;9.80;;
29044;SDS011;16133;49.486;12.176;2023-04-08T02:47:44;15.32;;;8.90;;
29044;SDS011;16133;49.486;12.176;2023-04-08T02:50:09;14.77;;;9.38;;
29044;SDS011;16133;49.486;12.176;2023-04-08T02:52:35;17.73;;;9.15;;
29044;SDS011;16133;49.486;12.176;2023-04-08T02:55:00;18.92;;;9.40;;
29044;SDS011;16133;49.486;12.176;2023-04-08T02:57:26;18.05;;;9.50;;
29044;SDS011;16133;49.486;12.176;2023-04-08T02:59:52;20.08;;;10.05;;
29044;SDS011;16133;49.486;12.176;2023-04-08T03:02:17;19.55;;;8.57;;
29044;SDS011;16133;49.486;12.176;2023-04-08T03:04:42;17.65;;;9.15;;
29044;SDS011;16133;49.486;12.176;2023-04-08T03:07:08;16.67;;;8.63;;
29044;SDS011;16133;49.486;12.176;2023-04-08T03:09:33;18.48;;;9.63;;
29044;SDS011;16133;49.486;12.176;2023-04-08T03:11:59;15.98;;;8.85;;
29044;SDS011;16133;49.486;12.176;2023-04-08T03:14:24;15.43;;;8.13;;
29044;SDS011;16133;49.486;12.176;2023-04-08T03:16:50;14.57;;;8.15;;
29044;SDS011;16133;49.486;12.176;2023-04-08T03:19:15;15.70;;;7.82;;
29044;SDS011;16133;49.486;12.176;2023-04-08T03:21:40;13.70;;;7.45;;
29044;SDS011;16133;49.486;12.176;2023-04-08T03:24:06;15.85;;;8.65;;
29044;SDS011;16133;49.486;12.176;2023-04-08T03:26:31;15.52;;;8.07;;
29044;SDS011;16133;49.486;12.176;2023-04-08T03:28:57;16.92;;;8.30;;
29044;SDS011;16133;49.486;12.176;2023-04-08T03:31:22;15.60;;;8.07;;
29044;SDS011;16133;49.486;12.176;2023-04-08T03:33:47;14.52;;;8.20;;
29044;SDS011;16133;49.486;12.176;2023-04-08T03:36:13;18.67;;;8.90;;
29044;SDS011;16133;49.486;12.176;2023-04-08T03:38:38;19.73;;;8.63;;
29044;SDS011;16133;49.486;12.176;2023-04-08T03:41:03;16.80;;;9.25;;
29044;SDS011;16133;49.486;12.176;2023-04-08T03:43:29;17.20;;;8.32;;
29044;SDS011;16133;49.486;12.176;2023-04-08T03:45:54;14.57;;;7.93;;
29044;SDS011;16133;49.486;12.176;2023-04-08T03:48:21;16.55;;;8.77;;
29044;SDS011;16133;49.486;12.176;2023-04-08T03:50:47;17.92;;;9.93;;
29044;SDS011;16133;49.486;12.176;2023-04-08T03:53:12;18.00;;;9.30;;
29044;SDS011;16133;49.486;12.176;2023-04-08T03:55:38;22.23;;;9.63;;
29044;SDS011;16133;49.486;12.176;2023-04-08T03:58:03;27.75;;;10.73;;
29044;SDS011;16133;49.486;12.176;2023-04-08T04:00:29;39.05;;;13.52;;
29044;SDS011;16133;49.486;12.176;2023-04-08T04:02:54;41.35;;;15.68;;
29044;SDS011;16133;49.486;12.176;2023-04-08T04:05:20;22.17;;;9.68;;
29044;SDS011;16133;49.486;12.176;2023-04-08T04:07:45;31.48;;;12.57;;
29044;SDS011;16133;49.486;12.176;2023-04-08T04:10:11;55.45;;;19.52;;
29044;SDS011;16133;49.486;12.176;2023-04-08T04:12:36;36.00;;;15.45;;
29044;SDS011;16133;49.486;12.176;2023-04-08T04:15:02;32.85;;;14.10;;
29044;SDS011;16133;49.486;12.176;2023-04-08T04:17:27;37.75;;;16.63;;
29044;SDS011;16133;49.486;12.176;2023-04-08T04:19:53;31.58;;;14.40;;
29044;SDS011;16133;49.486;12.176;2023-04-08T04:22:18;33.50;;;15.10;;
29044;SDS011;16133;49.486;12.176;2023-04-08T04:24:47;36.95;;;15.63;;
29044;SDS011;16133;49.486;12.176;2023-04-08T04:27:12;30.52;;;13.55;;
29044;SDS011;16133;49.486;12.176;2023-04-08T04:29:38;57.50;;;22.50;;
29044;SDS011;16133;49.486;12.176;2023-04-08T04:32:04;39.97;;;16.95;;
29044;SDS011;16133;49.486;12.176;2023-04-08T04:34:30;61.88;;;24.65;;
29044;SDS011;16133;49.486;12.176;2023-04-08T04:36:56;73.70;;;26.70;;
29044;SDS011;16133;49.486;12.176;2023-04-08T04:39:21;82.00;;;30.27;;
29044;SDS011;16133;49.486;12.176;2023-04-08T04:41:47;76.50;;;26.45;;
29044;SDS011;16133;49.486;12.176;2023-04-08T04:44:13;39.30;;;17.05;;
29044;SDS011;16133;49.486;12.176;2023-04-08T04:46:39;34.63;;;14.90;;
29044;SDS011;16133;49.486;12.176;2023-04-08T04:49:04;34.83;;;15.10;;
29044;SDS011;16133;49.486;12.176;2023-04-08T04:51:30;46.08;;;16.88;;
29044;SDS011;16133;49.486;12.176;2023-04-08T04:53:57;36.30;;;15.27;;
29044;SDS011;16133;49.486;12.176;2023-04-08T04:56:22;36.85;;;15.80;;
29044;SDS011;16133;49.486;12.176;2023-04-08T04:58:48;34.60;;;15.10;;
29044;SDS011;16133;49.486;12.176;2023-04-08T05:01:13;34.97;;;15.02;;
29044;SDS011;16133;49.486;12.176;2023-04-08T05:03:38;33.90;;;15.23;;
29044;SDS011;16133;49.486;12.176;2023-04-08T05:06:04;34.97;;;16.05;;
29044;SDS011;16133;49.486;12.176;2023-04-08T05:08:30;37.17;;;16.00;;
29044;SDS011;16133;49.486;12.176;2023-04-08T05:10:55;35.42;;;16.27;;
29044;SDS011;16133;49.486;12.176;2023-04-08T05:13:20;37.42;;;17.10;;
29044;SDS011;16133;49.486;12.176;2023-04-08T05:15:46;37.13;;;15.70;;
29044;SDS011;16133;49.486;12.176;2023-04-08T05:18:11;36.30;;;15.25;;
29044;SDS011;16133;49.486;12.176;2023-04-08T05:20:37;35.85;;;16.05;;
29044;SDS011;16133;49.486;12.176;2023-04-08T05:23:03;34.70;;;15.30;;
29044;SDS011;16133;49.486;12.176;2023-04-08T05:25:29;35.55;;;14.70;;
29044;SDS011;16133;49.486;12.176;2023-04-08T05:27:54;32.25;;;15.55;;
29044;SDS011;16133;49.486;12.176;2023-04-08T05:30:20;33.95;;;14.27;;
29044;SDS011;16133;49.486;12.176;2023-04-08T05:32:46;48.28;;;17.30;;
29044;SDS011;16133;49.486;12.176;2023-04-08T05:35:11;36.45;;;18.00;;
29044;SDS011;16133;49.486;12.176;2023-04-08T05:37:37;38.13;;;16.08;;
29044;SDS011;16133;49.486;12.176;2023-04-08T05:40:02;36.30;;;16.30;;
29044;SDS011;16133;49.486;12.176;2023-04-08T05:42:28;32.72;;;15.90;;
29044;SDS011;16133;49.486;12.176;2023-04-08T05:44:53;28.33;;;14.15;;
29044;SDS011;16133;49.486;12.176;2023-04-08T05:47:18;29.33;;;14.38;;
29044;SDS011;16133;49.486;12.176;2023-04-08T05:49:44;26.45;;;13.43;;
29044;SDS011;16133;49.486;12.176;2023-04-08T05:52:09;26.10;;;13.45;;
29044;SDS011;16133;49.486;12.176;2023-04-08T05:54:35;27.92;;;13.07;;
29044;SDS011;16133;49.486;12.176;2023-04-08T05:57:38;28.67;;;13.32;;
29044;SDS011;16133;49.486;12.176;2023-04-08T06:00:07;26.45;;;13.75;;
29044;SDS011;16133;49.486;12.176;2023-04-08T06:02:34;28.02;;;14.63;;
29044;SDS011;16133;49.486;12.176;2023-04-08T06:05:00;32.78;;;14.45;;
29044;SDS011;16133;49.486;12.176;2023-04-08T06:07:27;26.95;;;14.40;;
29044;SDS011;16133;49.486;12.176;2023-04-08T06:09:53;27.35;;;13.05;;
29044;SDS011;16133;49.486;12.176;2023-04-08T06:12:18;23.55;;;11.82;;
29044;SDS011;16133;49.486;12.176;2023-04-08T06:14:43;28.98;;;14.25;;
29044;SDS011;16133;49.486;12.176;2023-04-08T06:17:09;30.23;;;14.00;;
29044;SDS011;16133;49.486;12.176;2023-04-08T06:19:34;33.05;;;14.80;;
29044;SDS011;16133;49.486;12.176;2023-04-08T06:21:59;26.63;;;13.45;;
29044;SDS011;16133;49.486;12.176;2023-04-08T06:24:25;25.00;;;12.40;;
29044;SDS011;16133;49.486;12.176;2023-04-08T06:26:51;24.25;;;12.75;;
29044;SDS011;16133;49.486;12.176;2023-04-08T06:29:18;22.83;;;12.00;;
29044;SDS011;16133;49.486;12.176;2023-04-08T06:31:44;25.90;;;12.68;;
29044;SDS011;16133;49.486;12.176;2023-04-08T06:34:10;25.75;;;12.73;;
29044;SDS011;16133;49.486;12.176;2023-04-08T06:36:35;23.50;;;11.85;;
29044;SDS011;16133;49.486;12.176;2023-04-08T06:39:01;22.13;;;10.30;;
29044;SDS011;16133;49.486;12.176;2023-04-08T06:41:28;20.08;;;10.05;;
29044;SDS011;16133;49.486;12.176;2023-04-08T06:43:53;23.70;;;10.73;;
29044;SDS011;16133;49.486;12.176;2023-04-08T06:46:18;21.77;;;10.15;;
29044;SDS011;16133;49.486;12.176;2023-04-08T06:48:44;19.05;;;10.13;;
29044;SDS011;16133;49.486;12.176;2023-04-08T06:51:09;24.08;;;11.45;;
29044;SDS011;16133;49.486;12.176;2023-04-08T06:53:35;18.42;;;10.52;;
29044;SDS011;16133;49.486;12.176;2023-04-08T06:56:00;22.95;;;11.77;;
29044;SDS011;16133;49.486;12.176;2023-04-08T06:58:26;18.33;;;10.10;;
29044;SDS011;16133;49.486;12.176;2023-04-08T07:00:54;24.38;;;13.27;;
29044;SDS011;16133;49.486;12.176;2023-04-08T07:03:20;14.60;;;8.50;;
29044;SDS011;16133;49.486;12.176;2023-04-08T07:05:46;13.38;;;8.13;;
29044;SDS011;16133;49.486;12.176;2023-04-08T07:08:12;16.92;;;8.65;;
29044;SDS011;16133;49.486;12.176;2023-04-08T07:10:37;17.75;;;10.35;;
29044;SDS011;16133;49.486;12.176;2023-04-08T07:13:03;16.48;;;8.60;;
29044;SDS011;16133;49.486;12.176;2023-04-08T07:15:29;18.00;;;9.07;;
29044;SDS011;16133;49.486;12.176;2023-04-08T07:17:54;14.82;;;7.75;;
29044;SDS011;16133;49.486;12.176;2023-04-08T07:20:24;13.73;;;7.60;;
29044;SDS011;16133;49.486;12.176;2023-04-08T07:22:50;14.27;;;7.43;;
29044;SDS011;16133;49.486;12.176;2023-04-08T07:25:16;15.93;;;8.27;;
29044;SDS011;16133;49.486;12.176;2023-04-08T07:27:41;16.40;;;8.40;;
29044;SDS011;16133;49.486;12.176;2023-04-08T07:30:07;12.40;;;6.38;;
29044;SDS011;16133;49.486;12.176;2023-04-08T07:32:33;12.35;;;6.40;;
29044;SDS011;16133;49.486;12.176;2023-04-08T07:34:59;14.98;;;7.03;;
29044;SDS011;16133;49.486;12.176;2023-04-08T07:37:25;19.73;;;7.90;;
29044;SDS011;16133;49.486;12.176;2023-04-08T07:39:51;16.55;;;7.28;;
29044;SDS011;16133;49.486;12.176;2023-04-08T07:42:16;20.92;;;9.77;;
29044;SDS011;16133;49.486;12.176;2023-04-08T07:44:42;18.33;;;8.38;;
29044;SDS011;16133;49.486;12.176;2023-04-08T07:47:08;12.35;;;6.40;;
29044;SDS011;16133;49.486;12.176;2023-04-08T07:49:33;13.10;;;7.75;;
29044;SDS011;16133;49.486;12.176;2023-04-08T07:51:59;18.27;;;8.88;;
29044;SDS011;16133;49.486;12.176;2023-04-08T07:54:24;18.15;;;8.52;;
29044;SDS011;16133;49.486;12.176;2023-04-08T07:56:50;10.38;;;6.13;;
29044;SDS011;16133;49.486;12.176;2023-04-08T07:59:15;13.63;;;6.47;;
29044;SDS011;16133;49.486;12.176;2023-04-08T08:01:40;20.27;;;9.35;;
29044;SDS011;16133;49.486;12.176;2023-04-08T08:04:06;17.30;;;8.00;;
29044;SDS011;16133;49.486;12.176;2023-04-08T08:06:32;12.10;;;6.68;;
29044;SDS011;16133;49.486;12.176;2023-04-08T08:08:57;11.13;;;5.60;;
29044;SDS011;16133;49.486;12.176;2023-04-08T08:11:23;9.60;;;5.93;;
29044;SDS011;16133;49.486;12.176;2023-04-08T08:13:48;11.98;;;7.40;;
29044;SDS011;16133;49.486;12.176;2023-04-08T08:16:14;11.18;;;6.50;;
29044;SDS011;16133;49.486;12.176;2023-04-08T08:18:39;15.10;;;8.48;;
29044;SDS011;16133;49.486;12.176;2023-04-08T08:21:05;12.73;;;6.80;;
29044;SDS011;16133;49.486;12.176;2023-04-08T08:23:31;10.50;;;6.32;;
29044;SDS011;16133;49.486;12.176;2023-04-08T08:26:00;9.35;;;6.03;;
29044;SDS011;16133;49.486;12.176;2023-04-08T08:28:27;8.07;;;5.00;;
29044;SDS011;16133;49.486;12.176;2023-04-08T08:30:52;7.32;;;5.25;;
29044;SDS011;16133;49.486;12.176;2023-04-08T08:33:18;5.78;;;4.10;;
29044;SDS011;16133;49.486;12.176;2023-04-08T08:35:43;13.20;;;5.53;;
29044;SDS011;16133;49.486;12.176;2023-04-08T08:38:09;11.52;;;5.47;;
29044;SDS011;16133;49.486;12.176;2023-04-08T08:40:34;9.43;;;5.47;;
29044;SDS011;16133;49.486;12.176;2023-04-08T08:43:00;11.27;;;4.82;;
29044;SDS011;16133;49.486;12.176;2023-04-08T08:45:26;8.05;;;5.25;;
29044;SDS011;16133;49.486;12.176;2023-04-08T08:47:51;5.90;;;3.35;;
29044;SDS011;16133;49.486;12.176;2023-04-08T08:50:17;5.55;;;3.67;;
29044;SDS011;16133;49.486;12.176;2023-04-08T08:52:49;6.13;;;3.63;;
29044;SDS011;16133;49.486;12.176;2023-04-08T08:55:19;6.05;;;3.53;;
29044;SDS011;16133;49.486;12.176;2023-04-08T08:57:45;6.35;;;3.70;;
29044;SDS011;16133;49.486;12.176;2023-04-08T09:00:14;4.80;;;3.35;;
29044;SDS011;16133;49.486;12.176;2023-04-08T09:02:40;5.22;;;3.05;;
29044;SDS011;16133;49.486;12.176;2023-04-08T09:05:06;5.50;;;3.42;;
29044;SDS011;16133;49.486;12.176;2023-04-08T09:07:34;5.18;;;3.20;;
29044;SDS011;16133;49.486;12.176;2023-04-08T09:10:01;4.07;;;3.10;;
29044;SDS011;16133;49.486;12.176;2023-04-08T09:12:26;7.38;;;3.38;;
29044;SDS011;16133;49.486;12.176;2023-04-08T09:15:08;4.03;;;2.90;;
29044;SDS011;16133;49.486;12.176;2023-04-08T09:17:38;4.13;;;2.72;;
29044;SDS011;16133;49.486;12.176;2023-04-08T09:22:54;2.58;;;2.10;;
29044;SDS011;16133;49.486;12.176;2023-04-08T09:25:21;2.28;;;2.08;;
29044;SDS011;16133;49.486;12.176;2023-04-08T09:27:51;4.55;;;3.25;;
29044;SDS011;16133;49.486;12.176;2023-04-08T09:30:17;6.20;;;3.08;;
29044;SDS011;16133;49.486;12.176;2023-04-08T09:32:49;11.55;;;5.90;;
29044;SDS011;16133;49.486;12.176;2023-04-08T09:35:19;5.80;;;3.30;;
29044;SDS011;16133;49.486;12.176;2023-04-08T09:37:45;3.65;;;2.55;;
29044;SDS011;16133;49.486;12.176;2023-04-08T09:40:12;4.03;;;2.55;;
29044;SDS011;16133;49.486;12.176;2023-04-08T09:42:40;7.75;;;2.70;;
29044;SDS011;16133;49.486;12.176;2023-04-08T09:45:12;7.80;;;4.90;;
29044;SDS011;16133;49.486;12.176;2023-04-08T09:47:46;4.82;;;3.13;;
29044;SDS011;16133;49.486;12.176;2023-04-08T09:50:23;3.00;;;2.00;;
29044;SDS011;16133;49.486;12.176;2023-04-08T09:52:53;6.70;;;3.47;;
29044;SDS011;16133;49.486;12.176;2023-04-08T09:55:24;10.65;;;5.82;;
29044;SDS011;16133;49.486;12.176;2023-04-08T09:57:58;4.88;;;3.03;;
29044;SDS011;16133;49.486;12.176;2023-04-08T10:00:31;4.20;;;2.10;;
29044;SDS011;16133;49.486;12.176;2023-04-08T10:05:51;4.20;;;2.88;;
29044;SDS011;16133;49.486;12.176;2023-04-08T10:08:18;6.95;;;3.70;;
29044;SDS011;16133;49.486;12.176;2023-04-08T10:10:43;3.83;;;2.85;;
29044;SDS011;16133;49.486;12.176;2023-04-08T10:13:10;4.15;;;2.55;;
29044;SDS011;16133;49.486;12.176;2023-04-08T10:15:36;3.33;;;2.20;;
29044;SDS011;16133;49.486;12.176;2023-04-08T10:23:04;6.22;;;3.28;;
29044;SDS011;16133;49.486;12.176;2023-04-08T10:25:34;5.47;;;2.83;;
29044;SDS011;16133;49.486;12.176;2023-04-08T10:33:08;5.82;;;2.70;;
29044;SDS011;16133;49.486;12.176;2023-04-08T10:35:35;4.93;;;3.05;;
29044;SDS011;16133;49.486;12.176;2023-04-08T10:38:01;5.38;;;3.72;;
29044;SDS011;16133;49.486;12.176;2023-04-08T10:40:27;5.57;;;3.92;;
29044;SDS011;16133;49.486;12.176;2023-04-08T10:42:53;6.13;;;2.50;;
29044;SDS011;16133;49.486;12.176;2023-04-08T10:45:20;4.50;;;3.00;;
29044;SDS011;16133;49.486;12.176;2023-04-08T10:47:45;5.50;;;2.80;;
29044;SDS011;16133;49.486;12.176;2023-04-08T10:50:14;6.22;;;3.60;;
29044;SDS011;16133;49.486;12.176;2023-04-08T10:52:47;4.18;;;3.15;;
29044;SDS011;16133;49.486;12.176;2023-04-08T10:55:13;3.70;;;2.13;;
29044;SDS011;16133;49.486;12.176;2023-04-08T10:57:38;5.53;;;3.60;;
29044;SDS011;16133;49.486;12.176;2023-04-08T11:00:10;5.03;;;3.08;;
29044;SDS011;16133;49.486;12.176;2023-04-08T11:02:39;6.03;;;3.40;;
29044;SDS011;16133;49.486;12.176;2023-04-08T11:05:05;5.95;;;3.40;;
29044;SDS011;16133;49.486;12.176;2023-04-08T11:07:38;8.35;;;4.60;;
29044;SDS011;16133;49.486;12.176;2023-04-08T11:10:05;7.45;;;3.92;;
29044;SDS011;16133;49.486;12.176;2023-04-08T11:12:31;8.60;;;4.05;;
29044;SDS011;16133;49.486;12.176;2023-04-08T11:14:58;10.55;;;4.15;;
29044;SDS011;16133;49.486;12.176;2023-04-08T11:17:23;8.98;;;4.78;;
29044;SDS011;16133;49.486;12.176;2023-04-08T11:19:49;9.23;;;4.65;;
29044;SDS011;16133;49.486;12.176;2023-04-08T11:22:14;8.18;;;4.32;;
29044;SDS011;16133;49.486;12.176;2023-04-08T11:24:41;11.35;;;5.20;;
29044;SDS011;16133;49.486;12.176;2023-04-08T11:27:06;11.55;;;5.35;;
29044;SDS011;16133;49.486;12.176;2023-04-08T11:29:32;13.10;;;5.72;;
29044;SDS011;16133;49.486;12.176;2023-04-08T11:31:58;13.23;;;6.00;;
29044;SDS011;16133;49.486;12.176;2023-04-08T11:34:24;13.07;;;5.47;;
29044;SDS011;16133;49.486;12.176;2023-04-08T11:36:50;8.65;;;5.40;;
29044;SDS011;16133;49.486;12.176;2023-04-08T11:39:16;10.68;;;5.75;;
29044;SDS011;16133;49.486;12.176;2023-04-08T11:41:41;7.28;;;4.40;;
29044;SDS011;16133;49.486;12.176;2023-04-08T11:44:07;11.63;;;5.97;;
29044;SDS011;16133;49.486;12.176;2023-04-08T11:46:33;10.23;;;5.03;;
29044;SDS011;16133;49.486;12.176;2023-04-08T11:51:29;15.40;;;5.97;;
29044;SDS011;16133;49.486;12.176;2023-04-08T11:53:56;11.60;;;5.90;;
29044;SDS011;16133;49.486;12.176;2023-04-08T11:56:22;13.90;;;6.68;;
29044;SDS011;16133;49.486;12.176;2023-04-08T11:58:48;10.20;;;5.38;;
29044;SDS011;16133;49.486;12.176;2023-04-08T12:01:14;11.75;;;5.97;;
29044;SDS011;16133;49.486;12.176;2023-04-08T12:03:59;13.07;;;6.38;;
29044;SDS011;16133;49.486;12.176;2023-04-08T12:06:26;10.15;;;5.13;;
29044;SDS011;16133;49.486;12.176;2023-04-08T12:08:53;7.55;;;4.13;;
29044;SDS011;16133;49.486;12.176;2023-04-08T12:11:19;8.18;;;4.85;;
29044;SDS011;16133;49.486;12.176;2023-04-08T12:13:45;6.82;;;4.22;;
29044;SDS011;16133;49.486;12.176;2023-04-08T12:16:11;7.20;;;3.72;;
29044;SDS011;16133;49.486;12.176;2023-04-08T12:18:36;5.68;;;3.60;;
29044;SDS011;16133;49.486;12.176;2023-04-08T12:21:02;4.50;;;2.85;;
29044;SDS011;16133;49.486;12.176;2023-04-08T12:23:27;4.35;;;2.83;;
29044;SDS011;16133;49.486;12.176;2023-04-08T12:25:53;7.38;;;3.78;;
29044;SDS011;16133;49.486;12.176;2023-04-08T12:28:18;25.85;;;9.40;;
29044;SDS011;16133;49.486;12.176;2023-04-08T12:30:43;112.15;;;35.95;;
29044;SDS011;16133;49.486;12.176;2023-04-08T12:33:09;11.68;;;5.50;;
29044;SDS011;16133;49.486;12.176;2023-04-08T12:35:34;5.07;;;2.90;;
29044;SDS011;16133;49.486;12.176;2023-04-08T12:38:00;9.25;;;4.22;;
29044;SDS011;16133;49.486;12.176;2023-04-08T12:40:26;4.25;;;2.80;;
29044;SDS011;16133;49.486;12.176;2023-04-08T12:42:51;6.97;;;3.70;;
29044;SDS011;16133;49.486;12.176;2023-04-08T12:45:17;5.20;;;3.30;;
29044;SDS011;16133;49.486;12.176;2023-04-08T12:47:42;5.07;;;3.13;;
29044;SDS011;16133;49.486;12.176;2023-04-08T12:50:07;4.97;;;2.95;;
29044;SDS011;16133;49.486;12.176;2023-04-08T12:52:34;3.75;;;2.80;;
29044;SDS011;16133;49.486;12.176;2023-04-08T12:54:59;6.30;;;3.35;;
29044;SDS011;16133;49.486;12.176;2023-04-08T12:57:25;4.30;;;2.88;;
29044;SDS011;16133;49.486;12.176;2023-04-08T12:59:52;6.63;;;4.07;;
29044;SDS011;16133;49.486;12.176;2023-04-08T13:02:17;5.03;;;3.40;;
29044;SDS011;16133;49.486;12.176;2023-04-08T13:04:43;6.20;;;3.83;;
29044;SDS011;16133;49.486;12.176;2023-04-08T13:07:08;8.30;;;4.85;;
29044;SDS011;16133;49.486;12.176;2023-04-08T13:09:34;7.18;;;4.00;;
29044;SDS011;16133;49.486;12.176;2023-04-08T13:11:59;7.95;;;4.30;;
29044;SDS011;16133;49.486;12.176;2023-04-08T13:14:25;11.95;;;6.30;;
29044;SDS011;16133;49.486;12.176;2023-04-08T13:16:51;7.55;;;3.97;;
29044;SDS011;16133;49.486;12.176;2023-04-08T13:19:16;6.18;;;3.85;;
29044;SDS011;16133;49.486;12.176;2023-04-08T13:21:42;6.53;;;4.70;;
29044;SDS011;16133;49.486;12.176;2023-04-08T13:24:07;7.50;;;5.38;;
29044;SDS011;16133;49.486;12.176;2023-04-08T13:26:32;6.00;;;4.40;;
29044;SDS011;16133;49.486;12.176;2023-04-08T13:28:58;6.53;;;3.88;;
29044;SDS011;16133;49.486;12.176;2023-04-08T13:31:23;6.30;;;4.38;;
29044;SDS011;16133;49.486;12.176;2023-04-08T13:33:49;8.65;;;4.60;;
29044;SDS011;16133;49.486;12.176;2023-04-08T13:36:14;7.95;;;4.38;;
29044;SDS011;16133;49.486;12.176;2023-04-08T13:38:40;7.70;;;4.50;;
29044;SDS011;16133;49.486;12.176;2023-04-08T13:41:05;6.25;;;4.20;;
29044;SDS011;16133;49.486;12.176;2023-04-08T13:43:31;5.18;;;4.00;;
29044;SDS011;16133;49.486;12.176;2023-04-08T13:45:56;5.63;;;3.80;;
29044;SDS011;16133;49.486;12.176;2023-04-08T13:48:22;10.02;;;4.38;;
29044;SDS011;16133;49.486;12.176;2023-04-08T13:50:48;6.60;;;4.40;;
29044;SDS011;16133;49.486;12.176;2023-04-08T13:53:13;6.75;;;4.43;;
29044;SDS011;16133;49.486;12.176;2023-04-08T13:55:39;7.25;;;5.25;;
29044;SDS011;16133;49.486;12.176;2023-04-08T13:58:05;8.50;;;6.25;;
29044;SDS011;16133;49.486;12.176;2023-04-08T14:00:30;8.45;;;4.90;;
29044;SDS011;16133;49.486;12.176;2023-04-08T14:02:56;6.22;;;4.13;;
29044;SDS011;16133;49.486;12.176;2023-04-08T14:05:22;6.65;;;4.15;;
29044;SDS011;16133;49.486;12.176;2023-04-08T14:07:48;8.45;;;5.93;;
29044;SDS011;16133;49.486;12.176;2023-04-08T14:10:13;6.13;;;3.95;;
29044;SDS011;16133;49.486;12.176;2023-04-08T14:12:39;8.05;;;5.57;;
29044;SDS011;16133;49.486;12.176;2023-04-08T14:15:05;7.90;;;5.40;;
29044;SDS011;16133;49.486;12.176;2023-04-08T14:17:31;7.25;;;4.32;;
29044;SDS011;16133;49.486;12.176;2023-04-08T14:19:58;9.20;;;5.40;;
29044;SDS011;16133;49.486;12.176;2023-04-08T14:22:25;6.22;;;4.65;;
29044;SDS011;16133;49.486;12.176;2023-04-08T14:24:50;7.90;;;5.40;;
29044;SDS011;16133;49.486;12.176;2023-04-08T14:27:15;7.95;;;5.40;;
29044;SDS011;16133;49.486;12.176;2023-04-08T14:29:41;6.78;;;4.40;;
29044;SDS011;16133;49.486;12.176;2023-04-08T14:32:06;7.25;;;4.53;;
29044;SDS011;16133;49.486;12.176;2023-04-08T14:34:31;8.30;;;5.68;;
29044;SDS011;16133;49.486;12.176;2023-04-08T14:36:57;6.28;;;4.72;;
29044;SDS011;16133;49.486;12.176;2023-04-08T14:39:22;7.60;;;5.15;;
29044;SDS011;16133;49.486;12.176;2023-04-08T14:41:51;8.20;;;4.97;;
29044;SDS011;16133;49.486;12.176;2023-04-08T14:44:17;8.80;;;5.25;;
29044;SDS011;16133;49.486;12.176;2023-04-08T14:46:42;14.38;;;7.22;;
29044;SDS011;16133;49.486;12.176;2023-04-08T14:49:07;8.30;;;6.03;;